默认 日期 大小 文件数 浏览量 最新下载 xml
stargate磁力链接相关资源由用户搜索指令自动获取,结果来源于网络,本站不存储任何资料,亦不承担任何责任,请于24小时内删除,搜索到5384个磁力,显示前4000条数据,用时4ms。
    {"Stargate.Atlantis.S02E01.The.Siege.Part3.WS.DVDrip.XviD-SAiNTS.avi": 366964736, "stargate.atlantis.s02e01.the.siege.part3.ws.dvdrip.xvid-saints.nfo": 12630}
创建时间: 2018-11-19 12:35:31 大小:349.98 MB 文件数量:2 热度:9 最近下载:2024-10-03 18:08:02
    ... WWW.TORRENTING.COM.txt": 84, "Stargate.SG-1.S02E17.1080p.HEVC ... .x265-MeGusta.mkv": 769304934, "Stargate.SG-1.S02E17.1080p.HEVC ...
创建时间: 2018-11-19 14:18:39 大小:740.5 MB 文件数量:7 热度:10 最近下载:2023-04-17 15:40:03
    ... .0906.720-sfm.nfo": 3590, "Stargate.SG-1.S09E06.720p.HDTV ...
创建时间: 2018-11-19 15:54:10 大小:1.03 GB 文件数量:7 热度:9 最近下载:2023-04-17 17:10:05
    ... - Resurrection.srt": 49020, "Stargate SG-1 [7x20] - Inauguration. ... srt": 53990, "Stargate SG-1 [7x03] - Fragile ... Resurrection.avi": 367994880, "Stargate SG-1 [7x20] Inauguration. ... Balance.avi": 368230400, "Stargate SG-1 [7x11] Evolution ...
创建时间: 2018-11-19 22:33:13 大小:7.54 GB 文件数量:42 热度:10 最近下载:2023-04-17 19:20:12
    ... WWW.TORRENTING.COM.txt": 84, "Stargate.SG-1.S04E07.1080p.HEVC ... .x265-MeGusta.mkv": 559865113, "Stargate.SG-1.S04E07.1080p.HEVC ...
创建时间: 2018-11-19 23:36:42 大小:539.23 MB 文件数量:7 热度:9 最近下载:2023-04-17 19:50:08
    {"Stargate.HDrip.avi": 2199214080, "Stargate.HDrip.srt": 41952}
创建时间: 2018-11-19 23:48:21 大小:2.05 GB 文件数量:2 热度:8 最近下载:2023-04-17 20:00:21
    ... OMSKBIRD).mkv": 301866845, "Stargate Origins S01E02 WEB-DL 1080p ... OMSKBIRD).mkv": 245902355, "Stargate Origins S01E03 WEB-DL 1080p ... OMSKBIRD).mkv": 387706685, "Stargate Origins S01E04 WEB-DL 1080p ... OMSKBIRD).mkv": 311610980, "Stargate Origins S01E05 WEB-DL 1080p ...
创建时间: 2018-11-20 00:06:42 大小:1.44 GB 文件数量:5 热度:8 最近下载:2023-04-17 20:10:14
    ... WEB-DLRip.720p.mkv": 1509144443, "Stargate.SG-1.s08e02.WEB-DLRip ... .720p.mkv": 1521066941, "Stargate.SG-1.s08e03.WEB-DLRip ... .720p.mkv": 1542020523, "Stargate.SG-1.s08e04.WEB-DLRip ... .720p.mkv": 1540393884, "Stargate.SG-1.s08e05.WEB-DLRip ...
创建时间: 2018-11-20 00:40:57 大小:28.55 GB 文件数量:20 热度:7 最近下载:2025-03-10 19:33:02
    ... .1011.720-sfm.nfo": 3549, "Stargate.SG-1.S10E11.720p.HDTV ...
创建时间: 2018-11-20 01:08:30 大小:1.1 GB 文件数量:7 热度:8 最近下载:2023-04-17 20:50:03
    ... S02E15 - The Tower.srt": 56606, "Stargate Atlantis - S02E08 - Conversion.avi": 366725120 ... - Critical Mass.avi": 368338944, "Stargate Atlantis - S02E13 - Critical Mass.srt ... Grace Under Pressure.avi": 366616576, "Stargate Atlantis - S02E14 - Grace Under ...
创建时间: 2018-11-20 02:07:31 大小:6.83 GB 文件数量:40 热度:9 最近下载:2023-04-17 21:10:03
    ... CLUE.mkv": 2346629837, "Stargate.Atlantis.S01E04.720p.BluRay. ... CLUE.mkv": 2346214225, "Stargate.Atlantis.S01E05.720p.BluRay. ... CLUE.mkv": 2345778870, "Stargate.Atlantis.S01E06.720p.BluRay. ... SiNNERS.mkv": 4694272255, "Stargate.Atlantis.S05E20.EXTENDED.720p.BluRay ...
创建时间: 2018-11-20 02:15:23 大小:218.47 GB 文件数量:99 热度:21 最近下载:2025-06-16 07:21:01
    {"Stargate Universe - Temp.1 [DVDRIP][Caps.110][Spanish][www.pctestrenos.com].avi": 375103360}
创建时间: 2018-11-20 02:29:25 大小:357.73 MB 文件数量:1 热度:11 最近下载:2025-04-19 17:19:02
    ... .0902.720-sfm.nfo": 3666, "Stargate.SG-1.S09E02.720p.HDTV ...
创建时间: 2018-11-20 05:17:22 大小:1.07 GB 文件数量:7 热度:7 最近下载:2023-04-17 23:00:11
    {"Stargate -SG1 Season.1-10 Dutch Subs[NLT Release].nfo": 297, "Stargate -SG1 Season.1-10 Dutch Subs[NLT Release].zip": 15535402}
创建时间: 2018-11-20 06:09:44 大小:14.82 MB 文件数量:2 热度:6 最近下载:2023-04-17 23:50:02
    {"Sample": {"sample.ssg1.1020.1080-sfm.mkv": 46771721}, "ssg1.1020.1080-sfm.nfo": 3593, "ssg1.1020.1080-sfm.sfv": 1254, "Stargate.SG-1.S10E20.1080p.HDTV.h264-SFM.mkv": 1886615310, "Torrent Downloaded From www.scenetime.com.txt": 103}
创建时间: 2018-11-20 06:31:39 大小:1.8 GB 文件数量:5 热度:7 最近下载:2023-04-18 00:00:16
    {"Snapshot": {"aza-ssg1cotg-xvid1.JPG": 21874, "aza-ssg1cotg-xvid2.JPG": 15021, "aza-ssg1cotg-xvid3.JPG": 28856}, "aza-ssg1cotg-nfo.nfo": 1291, "aza-ssg1cotg-sfv.sfv": 5749, "aza-ssg1cotg-covert.jpg": 47035, "aza-ssg1cotg-xvid.part01.rar": 14680064, "aza- ...
创建时间: 2018-11-20 07:25:10 大小:685.9 MB 文件数量:55 热度:10 最近下载:2023-04-18 00:40:06
    ... .1007.1080-sfm.nfo": 3598, "Stargate.SG-1.S10E07.1080p.HDTV ...
创建时间: 2018-11-20 08:36:07 大小:1.76 GB 文件数量:7 热度:6 最近下载:2023-04-18 01:00:03
    ... .s01e04.BDRemux.1080p.mkv": 8853642676, "StarGate.Atlantis.s01e05.BDRemux.1080p.mkv ... ": 9468208305, "StarGate.Atlantis.s01e06.BDRemux.1080p.mkv ... ": 9383503690, "StarGate.Atlantis.s01e07.BDRemux.1080p.mkv ...
创建时间: 2018-11-20 09:43:14 大小:170.72 GB 文件数量:19 热度:12 最近下载:2024-03-23 22:57:01
    {"www.newpct.com.url": 111, "www.newpct1.com.url": 196, "www.DIVXATOPE.com.url": 877522, "Importante leer !!!!!.txt": 299, "Stargate_Sg-1_08x05_Icono.avi": 419518464, "Stargate_Sg-1_08x06_Avatar.avi": 419520512, "Stargate_Sg-1_08x11_Geminis.avi": 419164160 ...
创建时间: 2018-11-20 10:16:23 大小:7.98 GB 文件数量:23 热度:11 最近下载:2025-05-02 07:55:01
    ... WWW.TORRENTING.COM.txt": 84, "Stargate.SG-1.S07E13.1080p.HEVC ... .x265-MeGusta.mkv": 490916630, "Stargate.SG-1.S07E13.1080p.HEVC ...
创建时间: 2018-11-20 10:26:56 大小:473.96 MB 文件数量:7 热度:6 最近下载:2023-04-18 01:30:02